Time;durP1;ratioP1;P1;durP2;ratioP2;P2;SDS_P1;SDS_P2;PMS_P1;PMS_P2;Temp;Humidity;BMP_temperature;BMP_pressure;BME280_temperature;BME280_humidity;BME280_pressure;Samples;Min_cycle;Max_cycle;Signal;HPM_P1;HPM_P2
2022/07/26 00:02:20;;;;;;;7.97;5.17;;;;;;;18.32;74.87;100058.13;1768401;80;21217;-55
2022/07/26 00:05:25;;;;;;;10.23;5.22;;;;;;;18.32;74.88;100052.59;1769294;80;21233;-55
2022/07/26 00:08:32;;;;;;;6.55;5.10;;;;;;;18.33;74.95;100045.95;1768558;80;21257;-56
2022/07/26 00:11:38;;;;;;;6.08;5.28;;;;;;;18.36;75.00;100037.17;1768724;79;21271;-56
2022/07/26 00:14:44;;;;;;;9.35;5.65;;;;;;;18.40;75.10;100034.28;1770394;79;21221;-56
2022/07/26 00:17:50;;;;;;;6.08;4.75;;;;;;;18.44;75.13;100036.87;1769612;79;21225;-56
2022/07/26 00:21:01;;;;;;;7.65;5.15;;;;;;;18.46;75.10;100031.95;1768725;80;21198;-55
2022/07/26 00:24:10;;;;;;;6.45;5.08;;;;;;;18.47;75.09;100030.86;1769636;80;21174;-55
2022/07/26 00:27:17;;;;;;;7.75;5.42;;;;;;;18.49;75.12;100035.63;1769164;79;21209;-54
2022/07/26 00:30:24;;;;;;;6.67;4.70;;;;;;;18.50;75.14;100032.33;1769261;79;21244;-55
2022/07/26 00:33:29;;;;;;;7.17;5.35;;;;;;;18.52;75.15;100027.41;1768446;80;21248;-54
2022/07/26 00:36:36;;;;;;;7.70;5.20;;;;;;;18.52;75.14;100026.84;1749647;81;21248;-54
2022/07/26 00:39:43;;;;;;;6.97;5.28;;;;;;;18.53;75.13;100027.16;1779408;79;21177;-53
2022/07/26 00:42:49;;;;;;;9.30;5.15;;;;;;;18.51;75.14;100028.47;1758341;80;21186;-55
2022/07/26 00:45:55;;;;;;;6.33;5.58;;;;;;;18.50;75.17;100030.41;1770891;79;21181;-54
2022/07/26 00:49:01;;;;;;;8.05;5.28;;;;;;;18.48;75.19;100030.33;1768906;80;21393;-54
2022/07/26 00:52:09;;;;;;;10.85;4.97;;;;;;;18.47;75.20;100025.88;1768666;80;21332;-55
2022/07/26 00:55:16;;;;;;;7.67;5.20;;;;;;;18.44;75.22;100018.86;1768421;80;21198;-55
2022/07/26 00:58:24;;;;;;;7.85;5.78;;;;;;;18.41;75.25;100008.24;1768053;80;21279;-54
2022/07/26 01:01:29;;;;;;;6.03;4.92;;;;;;;18.40;75.33;99998.78;1768290;80;21735;-54
2022/07/26 01:04:51;;;;;;;7.15;4.85;;;;;;;18.39;75.35;99996.57;1768818;80;21233;-54
2022/07/26 01:07:57;;;;;;;8.25;4.55;;;;;;;18.39;75.37;99977.70;1768125;80;21256;-55
2022/07/26 01:11:04;;;;;;;13.88;5.60;;;;;;;18.38;75.44;99975.45;1768382;80;21213;-53
2022/07/26 01:14:11;;;;;;;8.50;5.17;;;;;;;18.40;75.52;99983.53;1770360;79;21194;-55
2022/07/26 01:17:19;;;;;;;8.20;4.85;;;;;;;18.40;75.56;99991.31;1768407;80;21710;-53
2022/07/26 01:20:25;;;;;;;8.08;5.25;;;;;;;18.41;75.62;99992.17;1768355;80;21216;-54
2022/07/26 01:23:31;;;;;;;7.42;5.30;;;;;;;18.41;75.66;99993.56;1769160;80;21347;-54
2022/07/26 01:26:38;;;;;;;7.05;5.25;;;;;;;18.40;75.70;99995.48;1768656;80;21197;-55
2022/07/26 01:29:44;;;;;;;8.13;5.10;;;;;;;18.38;75.69;99999.02;1768594;80;21209;-55
2022/07/26 01:32:51;;;;;;;7.85;5.92;;;;;;;18.38;75.70;100007.86;1768683;80;21209;-55
2022/07/26 01:35:59;;;;;;;6.20;5.60;;;;;;;18.36;75.71;100011.40;1758070;81;21146;-54
2022/07/26 01:39:06;;;;;;;6.90;5.35;;;;;;;18.33;75.72;100015.47;1768588;80;21194;-55
2022/07/26 01:42:13;;;;;;;6.10;5.37;;;;;;;18.34;75.78;100016.32;1772023;79;21189;-55
2022/07/26 01:45:22;;;;;;;9.03;5.37;;;;;;;18.34;75.85;100026.02;1768585;80;21177;-54
2022/07/26 01:48:29;;;;;;;9.00;5.45;;;;;;;18.34;75.87;100024.11;1768630;80;21213;-56
2022/07/26 01:51:36;;;;;;;8.50;5.42;;;;;;;18.33;75.94;100022.39;1769411;80;21255;-54
2022/07/26 01:54:42;;;;;;;9.90;5.25;;;;;;;18.34;75.93;100029.65;1770573;80;21206;-55
2022/07/26 01:57:53;;;;;;;6.00;5.12;;;;;;;18.33;75.90;100027.94;1772924;79;21181;-55
2022/07/26 02:00:59;;;;;;;6.62;5.12;;;;;;;18.32;75.96;100031.80;1793737;79;21312;-55
2022/07/26 02:04:05;;;;;;;8.43;5.15;;;;;;;18.32;75.99;100031.80;1795242;79;21169;-55
2022/07/26 02:07:10;;;;;;;6.47;5.50;;;;;;;18.32;76.03;100034.57;1738398;81;21370;-54
2022/07/26 02:10:19;;;;;;;8.35;5.15;;;;;;;18.32;76.03;100037.88;1703265;84;21249;-55
2022/07/26 02:13:27;;;;;;;6.55;5.40;;;;;;;18.30;76.07;100036.72;1720309;81;21241;-54
2022/07/26 02:16:32;;;;;;;7.62;5.33;;;;;;;18.30;76.11;100040.87;1751597;81;21214;-54
2022/07/26 02:19:37;;;;;;;6.60;5.62;;;;;;;18.30;76.14;100033.13;1734070;82;21224;-54
2022/07/26 02:22:44;;;;;;;8.08;5.28;;;;;;;18.28;76.07;100031.98;1727196;82;21249;-54
2022/07/26 02:25:50;;;;;;;7.78;5.60;;;;;;;18.27;76.06;100039.97;1733614;80;21196;-54
2022/07/26 02:28:57;;;;;;;5.45;4.83;;;;;;;18.26;76.09;100031.36;1727571;82;21257;-56
2022/07/26 02:32:03;;;;;;;6.92;5.22;;;;;;;18.26;76.09;100029.98;1734128;80;21660;-55
2022/07/26 02:35:09;;;;;;;5.90;4.97;;;;;;;18.23;76.13;100030.98;1727139;82;21185;-54
2022/07/26 02:38:17;;;;;;;7.33;5.37;;;;;;;18.23;76.22;100039.29;1734092;80;21338;-54
2022/07/26 02:41:23;;;;;;;6.70;5.62;;;;;;;18.23;76.27;100048.98;1726805;82;21190;-54
2022/07/26 02:44:29;;;;;;;8.85;5.42;;;;;;;18.22;76.28;100041.20;1734752;80;21244;-54
2022/07/26 02:47:35;;;;;;;6.72;5.80;;;;;;;18.24;76.37;100047.89;1752515;81;21742;-54
2022/07/26 02:50:43;;;;;;;7.95;5.60;;;;;;;18.24;76.39;100041.83;1768865;80;21444;-55
2022/07/26 02:53:50;;;;;;;7.10;5.15;;;;;;;18.25;76.37;100044.89;1704584;84;21189;-55
2022/07/26 02:56:59;;;;;;;10.63;5.90;;;;;;;18.25;76.41;100052.38;1727833;83;21228;-54
2022/07/26 03:00:04;;;;;;;7.90;5.30;;;;;;;18.24;76.41;100055.68;1733560;83;21236;-54
2022/07/26 03:03:12;;;;;;;6.92;5.40;;;;;;;18.24;76.44;100046.51;1786011;79;21205;-54
2022/07/26 03:06:20;;;;;;;5.90;5.30;;;;;;;18.27;76.55;100049.66;1785135;80;21220;-54
2022/07/26 03:09:28;;;;;;;7.50;5.33;;;;;;;18.29;76.53;100054.44;1784984;79;21188;-55
2022/07/26 03:12:34;;;;;;;8.50;5.87;;;;;;;18.30;76.53;100051.97;1785194;78;21251;-54
2022/07/26 03:15:39;;;;;;;7.58;5.78;;;;;;;18.33;76.58;100057.04;1777181;78;21192;-54
2022/07/26 03:18:45;;;;;;;8.28;5.97;;;;;;;18.37;76.62;100050.50;1795271;79;21784;-54
2022/07/26 03:21:50;;;;;;;7.15;5.50;;;;;;;18.42;76.64;100050.14;1800767;79;21569;-54
2022/07/26 03:24:58;;;;;;;8.13;5.53;;;;;;;18.45;76.61;100051.59;1794296;79;21185;-55
2022/07/26 03:28:04;;;;;;;8.78;5.95;;;;;;;18.50;76.64;100049.81;1759496;80;21209;-55
2022/07/26 03:31:13;;;;;;;12.37;5.65;;;;;;;18.56;76.67;100043.33;1768669;80;21916;-54
2022/07/26 03:34:20;;;;;;;6.45;5.80;;;;;;;18.63;76.59;100048.22;1776405;79;21240;-54
2022/07/26 03:37:26;;;;;;;7.28;5.83;;;;;;;18.68;76.59;100051.13;1789155;80;21204;-54
2022/07/26 03:40:34;;;;;;;10.48;6.00;;;;;;;18.74;76.58;100061.84;1737626;82;21244;-54
2022/07/26 03:43:40;;;;;;;6.72;6.03;;;;;;;18.78;76.50;100067.20;1738588;82;21339;-53
2022/07/26 03:46:47;;;;;;;8.10;5.60;;;;;;;18.79;76.47;100065.58;1765884;80;21398;-54
2022/07/26 03:49:54;;;;;;;6.97;5.95;;;;;;;18.83;76.57;100069.59;1738513;82;21221;-54
2022/07/26 03:53:01;;;;;;;6.78;6.08;;;;;;;18.88;76.61;100061.40;1766467;80;21182;-53
2022/07/26 03:59:31;;;;;;;6.58;5.97;;;;;;;18.99;76.56;100061.97;1817657;78;21179;-54
2022/07/26 04:02:38;;;;;;;7.25;5.97;;;;;;;19.03;76.54;100060.92;1817112;79;21210;-54
2022/07/26 04:05:45;;;;;;;7.35;6.08;;;;;;;19.07;76.51;100056.08;1817989;78;21188;-54
2022/07/26 04:08:50;;;;;;;7.50;6.37;;;;;;;19.14;76.59;100061.48;1818245;78;21167;-55
2022/07/26 04:11:55;;;;;;;8.38;6.28;;;;;;;19.27;76.65;100059.88;1817913;78;21254;-53
2022/07/26 04:15:02;;;;;;;7.08;6.15;;;;;;;19.37;76.57;100059.32;1817384;78;21242;-53
2022/07/26 04:18:07;;;;;;;10.85;6.80;;;;;;;19.44;76.56;100061.45;1816580;78;21246;-54
2022/07/26 04:21:13;;;;;;;7.95;6.72;;;;;;;19.47;76.47;100063.73;1800783;78;21377;-56
2022/07/26 04:24:20;;;;;;;9.43;6.78;;;;;;;19.50;76.43;100059.95;1817482;78;21230;-55
2022/07/26 04:27:30;;;;;;;8.95;7.45;;;;;;;19.52;76.40;100063.87;1794882;78;21750;-56
2022/07/26 04:30:36;;;;;;;8.65;6.72;;;;;;;19.53;76.28;100065.55;1800299;78;21233;-54
2022/07/26 04:33:42;;;;;;;10.60;7.05;;;;;;;19.53;76.35;100061.37;1801145;79;21733;-54
2022/07/26 04:36:48;;;;;;;7.22;6.53;;;;;;;19.58;76.38;100055.95;1770853;79;21394;-55
2022/07/26 04:39:54;;;;;;;7.83;7.03;;;;;;;19.63;76.44;100061.06;1768397;80;21193;-55
2022/07/26 04:43:01;;;;;;;8.60;7.22;;;;;;;19.70;76.43;100064.58;1768799;80;21242;-55
2022/07/26 04:46:08;;;;;;;8.03;7.22;;;;;;;19.79;76.41;100060.89;1747706;80;21232;-55
2022/07/26 04:49:16;;;;;;;8.90;7.45;;;;;;;19.87;76.37;100063.30;1767324;80;21198;-54
2022/07/26 04:52:21;;;;;;;10.30;6.78;;;;;;;19.95;76.31;100061.51;1766836;81;21233;-55
2022/07/26 04:55:26;;;;;;;9.50;7.87;;;;;;;20.04;76.33;100060.06;1784144;79;21200;-54
2022/07/26 04:58:35;;;;;;;8.38;7.30;;;;;;;20.13;76.29;100057.20;1771380;80;21162;-55
2022/07/26 05:01:41;;;;;;;11.73;7.95;;;;;;;20.22;76.29;100050.19;1763381;79;21253;-55
2022/07/26 05:04:47;;;;;;;9.23;7.95;;;;;;;20.32;76.28;100055.43;1781730;79;21705;-54
2022/07/26 05:08:02;;;;;;;10.13;8.28;;;;;;;20.42;76.22;100064.52;1804078;79;21776;-54
2022/07/26 05:11:09;;;;;;;8.53;7.62;;;;;;;20.53;76.22;100058.07;1805663;78;21338;-55
2022/07/26 05:14:21;;;;;;;9.87;7.77;;;;;;;20.59;76.05;100059.85;1787767;78;21162;-54
2022/07/26 05:17:32;;;;;;;10.00;8.53;;;;;;;20.64;76.01;100056.60;1803985;77;21442;-54
2022/07/26 05:20:43;;;;;;;9.25;7.95;;;;;;;20.72;76.00;100056.77;1745329;81;21224;-54
2022/07/26 05:23:49;;;;;;;9.73;7.95;;;;;;;20.78;75.97;100048.81;1787886;79;21173;-54
2022/07/26 05:26:55;;;;;;;14.58;9.48;;;;;;;20.86;75.97;100049.80;1775974;79;21781;-55
2022/07/26 05:30:03;;;;;;;9.05;8.15;;;;;;;20.97;76.00;100048.06;1767842;80;21399;-54
2022/07/26 05:33:11;;;;;;;10.72;7.92;;;;;;;21.09;76.01;100045.50;1767838;80;21221;-54
2022/07/26 05:36:19;;;;;;;9.18;8.28;;;;;;;21.24;75.95;100044.37;1768293;79;21181;-55
2022/07/26 05:39:26;;;;;;;14.95;8.30;;;;;;;21.37;75.91;100056.58;1770342;79;21328;-53
2022/07/26 05:42:32;;;;;;;11.43;7.30;;;;;;;21.46;75.89;100045.30;1763238;80;21379;-54
2022/07/26 05:45:40;;;;;;;9.13;8.10;;;;;;;21.50;75.72;100045.06;1769251;79;21394;-54
2022/07/26 05:48:51;;;;;;;10.25;7.75;;;;;;;21.59;75.74;100046.34;1768086;80;21331;-56
2022/07/26 05:51:59;;;;;;;9.05;7.75;;;;;;;21.74;75.82;100036.80;1768826;80;21363;-54
2022/07/26 05:54:59;;;;;;;8.83;7.92;;;;;;;21.88;75.83;100036.75;1772193;80;21728;-55
2022/07/26 05:58:06;;;;;;;9.00;8.10;;;;;;;21.99;75.74;100037.18;1764832;80;21225;-54
2022/07/26 06:01:14;;;;;;;9.85;7.30;;;;;;;22.05;75.74;100044.53;1767252;80;21797;-55
2022/07/26 06:04:24;;;;;;;10.65;7.47;;;;;;;22.09;75.66;100044.30;1758250;80;21194;-55
2022/07/26 06:07:32;;;;;;;10.18;8.00;;;;;;;22.13;75.69;100040.45;1767873;80;21407;-54
2022/07/26 06:10:38;;;;;;;8.65;7.72;;;;;;;22.18;75.72;100040.52;1771736;80;21184;-54
2022/07/26 06:13:44;;;;;;;8.90;7.97;;;;;;;22.20;75.74;100033.56;1773077;80;21272;-54
2022/07/26 06:16:56;;;;;;;9.00;7.05;;;;;;;22.19;75.79;100031.89;1770081;80;21402;-53
2022/07/26 06:20:07;;;;;;;10.05;7.80;;;;;;;22.23;75.76;100030.83;1769127;79;21200;-54
2022/07/26 06:23:16;;;;;;;11.50;8.50;;;;;;;22.25;75.78;100032.78;1766382;80;21229;-54
2022/07/26 06:26:25;;;;;;;12.15;7.25;;;;;;;22.29;75.81;100029.78;1714477;82;21261;-52
2022/07/26 06:29:32;;;;;;;9.05;8.15;;;;;;;22.41;75.94;100029.61;1737759;82;21199;-54
2022/07/26 06:33:00;;;;;;;8.93;8.03;;;;;;;22.52;75.87;100030.91;1737842;80;21272;-51
2022/07/26 06:36:16;;;;;;;9.70;8.33;;;;;;;22.55;75.75;100026.20;1717043;81;21358;-52
2022/07/26 06:39:25;;;;;;;11.70;7.65;;;;;;;22.58;75.68;100034.61;1719207;82;21652;-54
2022/07/26 06:42:42;;;;;;;9.43;7.83;;;;;;;22.67;75.69;100026.05;1733004;81;21231;-53
2022/07/26 06:45:53;;;;;;;10.58;8.13;;;;;;;22.76;75.65;100030.89;1762694;81;21645;-54
2022/07/26 06:49:04;;;;;;;10.88;8.45;;;;;;;22.78;75.58;100033.42;1696230;83;21248;-52
2022/07/26 06:52:17;;;;;;;9.63;8.63;;;;;;;22.76;75.46;100037.02;1694934;84;21755;-54
2022/07/26 06:55:24;;;;;;;10.65;8.35;;;;;;;22.78;75.50;100030.63;1772506;80;21267;-52
2022/07/26 06:58:33;;;;;;;8.73;7.53;;;;;;;22.81;75.50;100035.14;1762344;80;21205;-53
2022/07/26 07:01:35;;;;;;;11.80;7.62;;;;;;;22.83;75.46;100034.33;1752289;81;21207;-52
2022/07/26 07:04:43;;;;;;;11.08;7.20;;;;;;;22.89;75.47;100038.84;1748875;81;21688;-52
2022/07/26 07:07:49;;;;;;;9.93;7.40;;;;;;;22.90;75.31;100041.92;1748749;81;21209;-53
2022/07/26 07:11:06;;;;;;;8.95;7.22;;;;;;;22.93;75.44;100038.59;1772414;80;21283;-54
2022/07/26 07:14:19;;;;;;;8.78;6.70;;;;;;;22.99;75.28;100042.30;1780269;79;21815;-56
2022/07/26 07:17:27;;;;;;;8.93;6.15;;;;;;;22.95;75.18;100041.13;1795221;80;21278;-56
2022/07/26 07:20:36;;;;;;;7.85;5.90;;;;;;;22.94;75.13;100039.45;1805185;78;21621;-55
2022/07/26 07:23:43;;;;;;;6.70;6.00;;;;;;;22.90;75.04;100039.67;1809478;78;21177;-54
2022/07/26 07:26:50;;;;;;;7.10;6.37;;;;;;;22.89;75.02;100046.38;1796571;79;21256;-56
2022/07/26 07:29:57;;;;;;;9.08;6.30;;;;;;;22.89;75.01;100045.83;1812020;78;21378;-55
2022/07/26 07:33:08;;;;;;;7.10;6.00;;;;;;;22.93;75.06;100044.75;1775737;79;21325;-55
2022/07/26 07:36:16;;;;;;;6.47;5.75;;;;;;;22.93;75.03;100042.78;1737671;82;21218;-54
2022/07/26 07:39:25;;;;;;;6.95;5.67;;;;;;;22.97;75.05;100048.69;1743330;80;21220;-50
2022/07/26 07:42:35;;;;;;;11.48;6.80;;;;;;;22.97;74.85;100045.35;1770990;79;21193;-49
2022/07/26 07:45:42;;;;;;;6.85;5.90;;;;;;;22.92;74.75;100039.72;1747232;80;21228;-50
2022/07/26 07:48:50;;;;;;;7.85;5.85;;;;;;;22.91;74.80;100047.78;1749609;81;21658;-49
2022/07/26 07:51:56;;;;;;;11.70;5.75;;;;;;;22.99;74.88;100059.87;1751421;82;21223;-49
2022/07/26 07:55:07;;;;;;;9.30;6.22;;;;;;;23.10;74.91;100057.45;1771221;80;21280;-51
2022/07/26 07:58:16;;;;;;;7.20;5.95;;;;;;;23.21;74.89;100059.81;1777778;80;21218;-49
2022/07/26 08:01:26;;;;;;;11.12;5.30;;;;;;;23.31;74.73;100058.52;1783626;79;21698;-49
2022/07/26 08:04:33;;;;;;;8.90;4.85;;;;;;;23.33;74.56;100056.30;1742499;81;21222;-50
2022/07/26 08:07:40;;;;;;;7.05;5.20;;;;;;;23.40;74.57;100053.56;1742715;82;21248;-51
2022/07/26 08:11:05;;;;;;;4.62;4.10;;;;;;;23.45;74.30;100054.19;1784380;79;21761;-53
2022/07/26 08:14:13;;;;;;;5.60;4.30;;;;;;;23.48;74.14;100055.05;1789772;79;21754;-53
2022/07/26 08:17:20;;;;;;;7.28;4.67;;;;;;;23.49;74.08;100044.14;1791962;78;21228;-53
2022/07/26 08:20:31;;;;;;;6.75;4.50;;;;;;;23.55;74.11;100052.84;1778638;76;21263;-51
2022/07/26 08:23:38;;;;;;;7.05;5.20;;;;;;;23.57;73.90;100052.03;1775500;80;21279;-53
2022/07/26 08:26:52;;;;;;;5.87;4.70;;;;;;;23.58;73.91;100049.52;1765135;80;21283;-51
2022/07/26 08:30:00;;;;;;;6.12;4.50;;;;;;;23.63;73.92;100047.34;1766819;80;21240;-52
2022/07/26 08:33:08;;;;;;;6.78;4.47;;;;;;;23.68;73.84;100044.55;1779197;78;21231;-52
2022/07/26 08:36:18;;;;;;;5.28;4.70;;;;;;;23.80;73.88;100037.64;1798261;79;21189;-50
2022/07/26 08:39:27;;;;;;;6.22;4.67;;;;;;;24.04;73.97;100047.90;1765179;81;21209;-51
2022/07/26 08:42:34;;;;;;;4.85;4.35;;;;;;;24.26;73.87;100031.20;1761313;81;21189;-52
2022/07/26 08:45:49;;;;;;;5.90;4.43;;;;;;;24.48;73.85;100036.04;1718457;82;21216;-52
2022/07/26 08:48:56;;;;;;;4.90;3.90;;;;;;;24.63;73.65;100037.50;1718777;82;21965;-52
2022/07/26 08:52:02;;;;;;;6.72;4.70;;;;;;;24.70;73.30;100033.08;1763555;81;21220;-52
2022/07/26 08:55:10;;;;;;;5.58;4.50;;;;;;;24.70;73.01;100027.47;1765058;81;21185;-51
2022/07/26 08:58:18;;;;;;;6.10;4.85;;;;;;;24.59;72.70;100037.75;1779815;78;21284;-52
2022/07/26 09:01:24;;;;;;;7.37;4.95;;;;;;;24.44;72.58;100040.52;1764495;80;21757;-50
2022/07/26 09:04:34;;;;;;;7.90;5.55;;;;;;;24.32;72.57;100032.93;1789411;79;21237;-55
2022/07/26 09:07:44;;;;;;;9.05;6.15;;;;;;;24.26;72.56;100045.77;1799273;79;21185;-54
2022/07/26 09:10:58;;;;;;;8.08;5.40;;;;;;;24.13;72.26;100058.30;1798946;79;21714;-55
2022/07/26 09:14:13;;;;;;;6.28;4.62;;;;;;;23.93;72.14;100060.94;1767190;80;21191;-56
2022/07/26 09:17:27;;;;;;;6.85;5.10;;;;;;;23.80;72.08;100052.19;1768767;80;21221;-56
2022/07/26 09:20:40;;;;;;;6.12;5.08;;;;;;;23.72;72.12;100043.77;1772036;80;21824;-55
2022/07/26 09:23:47;;;;;;;6.20;5.20;;;;;;;23.70;72.18;100044.58;1773378;79;21661;-54
2022/07/26 09:27:06;;;;;;;6.50;5.30;;;;;;;23.68;72.15;100019.39;1739626;81;21581;-55
2022/07/26 09:30:19;;;;;;;7.78;5.80;;;;;;;23.66;72.14;100016.86;1710587;81;21180;-55
2022/07/26 09:33:26;;;;;;;6.30;5.28;;;;;;;23.64;72.14;100015.73;1757879;81;21254;-55
2022/07/26 09:36:32;;;;;;;6.58;5.08;;;;;;;23.68;72.24;100023.58;1762659;80;21209;-54
2022/07/26 09:39:39;;;;;;;8.90;5.92;;;;;;;23.70;72.29;100018.03;1751844;80;21180;-54
2022/07/26 09:43:06;;;;;;;7.95;5.62;;;;;;;23.71;72.24;100025.29;1761231;80;21441;-54
2022/07/26 09:46:14;;;;;;;6.33;5.30;;;;;;;23.81;72.41;100015.58;1767871;79;21319;-55
2022/07/26 09:49:29;;;;;;;5.28;4.75;;;;;;;24.00;72.35;100021.58;1754738;80;21195;-54
2022/07/26 09:52:37;;;;;;;6.28;4.45;;;;;;;24.17;72.42;100023.06;1768547;79;21272;-54
2022/07/26 09:55:58;;;;;;;5.28;4.15;;;;;;;24.32;72.29;100013.89;1763549;80;21230;-53
2022/07/26 09:59:04;;;;;;;16.48;4.20;;;;;;;24.51;72.46;100012.27;1782658;80;21232;-55
2022/07/26 10:02:14;;;;;;;4.55;3.92;;;;;;;24.72;72.39;100007.05;1762427;80;21343;-59
2022/07/26 10:05:23;;;;;;;4.90;4.10;;;;;;;25.00;72.33;99997.56;1763068;80;21207;-56
2022/07/26 10:08:30;;;;;;;5.75;3.98;;;;;;;25.24;72.05;100016.05;1757735;80;21503;-58
2022/07/26 10:11:38;;;;;;;6.37;3.80;;;;;;;25.36;71.90;100022.23;1767194;80;21719;-57
2022/07/26 10:14:46;;;;;;;4.12;3.60;;;;;;;25.37;71.58;100017.48;1758363;81;21480;-57
2022/07/26 10:17:55;;;;;;;5.42;3.40;;;;;;;25.35;71.39;100026.73;1768272;80;21225;-56
2022/07/26 10:21:03;;;;;;;4.85;3.27;;;;;;;25.30;71.06;100030.89;1767138;80;21754;-55
2022/07/26 10:24:12;;;;;;;4.17;2.98;;;;;;;25.17;70.82;100023.89;1791175;79;21200;-56
2022/07/26 10:27:41;;;;;;;8.00;3.15;;;;;;;25.04;70.53;100023.88;1782695;79;21213;-57
2022/07/26 10:30:47;;;;;;;4.62;3.10;;;;;;;25.02;70.41;100026.11;1823484;78;21261;-55
2022/07/26 10:33:58;;;;;;;5.40;3.50;;;;;;;25.11;70.41;100020.81;1816550;78;21604;-57
2022/07/26 10:37:08;;;;;;;5.10;4.00;;;;;;;25.27;70.48;100025.85;1768605;81;21232;-56
2022/07/26 10:40:28;;;;;;;4.08;3.37;;;;;;;25.39;70.39;100023.63;1782338;80;21316;-58
2022/07/26 10:43:37;;;;;;;6.55;3.37;;;;;;;25.46;70.19;100009.63;1795151;79;21177;-57
2022/07/26 10:47:04;;;;;;;5.92;3.17;;;;;;;25.52;70.01;100004.28;1800315;79;21417;-56
2022/07/26 10:50:14;;;;;;;5.62;3.45;;;;;;;25.69;70.04;99999.78;1755984;80;21370;-57
2022/07/26 10:53:32;;;;;;;5.90;3.15;;;;;;;25.77;69.52;99997.22;1727716;82;21221;-58
2022/07/26 10:56:40;;;;;;;4.45;3.65;;;;;;;25.70;69.24;99995.30;1762636;80;21205;-58
2022/07/26 10:59:47;;;;;;;5.20;3.27;;;;;;;25.63;69.09;99994.73;1747524;81;21351;-59
2022/07/26 11:03:02;;;;;;;7.20;3.63;;;;;;;25.51;69.07;100002.62;1775818;80;22095;-58
2022/07/26 11:06:22;;;;;;;6.15;3.80;;;;;;;25.51;69.19;100000.36;1771524;80;21230;-59
2022/07/26 11:09:36;;;;;;;5.37;3.72;;;;;;;25.61;69.41;100005.38;1761332;81;21539;-51
2022/07/26 11:12:45;;;;;;;5.75;4.05;;;;;;;25.84;69.68;100003.94;1716724;79;21248;-53
2022/07/26 11:15:53;;;;;;;4.17;3.65;;;;;;;25.96;69.62;99997.44;1767864;80;21245;-50
2022/07/26 11:19:00;;;;;;;4.40;3.72;;;;;;;26.03;69.45;99977.83;1762117;80;21165;-54
2022/07/26 11:22:11;;;;;;;6.90;3.75;;;;;;;26.14;69.34;99968.23;1736184;81;21379;-52
2022/07/26 11:25:28;;;;;;;4.58;3.50;;;;;;;26.29;69.28;99967.33;1727660;81;21372;-53
2022/07/26 11:28:55;;;;;;;4.22;2.98;;;;;;;26.42;69.26;99961.91;1761791;80;21186;-54
2022/07/26 11:32:11;;;;;;;4.20;3.33;;;;;;;26.57;69.04;99959.58;1766742;79;21283;-55
2022/07/26 11:35:29;;;;;;;3.55;3.08;;;;;;;26.65;68.86;99966.02;1787977;79;21224;-54
2022/07/26 11:38:57;;;;;;;3.33;3.02;;;;;;;26.55;68.27;99966.03;1772517;79;21214;-54
2022/07/26 11:42:18;;;;;;;7.28;3.30;;;;;;;26.50;68.04;99955.42;1767812;80;21810;-53
2022/07/26 11:45:28;;;;;;;4.95;3.27;;;;;;;26.43;67.85;99958.55;1707070;82;21192;-54
2022/07/26 11:48:40;;;;;;;3.87;3.20;;;;;;;26.36;67.82;99956.61;1761552;80;21185;-55
2022/07/26 11:52:02;;;;;;;5.45;3.83;;;;;;;26.24;67.75;99948.52;1779841;79;21221;-56
2022/07/26 11:55:08;;;;;;;8.38;4.70;;;;;;;26.14;67.70;99943.53;1779903;79;21587;-54
2022/07/26 11:58:19;;;;;;;4.92;3.37;;;;;;;26.00;67.73;99937.72;1768314;80;21371;-54
2022/07/26 12:01:26;;;;;;;4.95;4.05;;;;;;;26.08;68.00;99937.12;1767728;80;21269;-55
2022/07/26 12:04:36;;;;;;;8.25;3.90;;;;;;;26.27;68.16;99940.11;1760240;79;21195;-53
2022/07/26 12:08:10;;;;;;;4.87;3.12;;;;;;;26.47;68.03;99918.92;1740988;81;21265;-55
2022/07/26 12:11:20;;;;;;;8.75;3.83;;;;;;;26.60;67.68;99920.23;1731220;82;21387;-57
2022/07/26 12:14:37;;;;;;;3.90;3.37;;;;;;;26.59;67.21;99922.22;1739635;81;21611;-57
2022/07/26 12:17:44;;;;;;;6.03;3.77;;;;;;;26.56;67.11;99929.80;1741452;81;21205;-56
2022/07/26 12:21:04;;;;;;;5.30;3.60;;;;;;;26.73;67.12;99921.86;1738808;81;21240;-54
2022/07/26 12:24:55;;;;;;;3.75;3.33;;;;;;;27.01;67.14;99925.27;1737899;81;21228;-55
2022/07/26 12:28:06;;;;;;;4.87;3.58;;;;;;;27.23;66.75;99922.81;1659247;86;21256;-57
2022/07/26 12:31:11;;;;;;;5.80;3.27;;;;;;;27.09;66.14;99928.86;1638545;86;21745;-55
2022/07/26 12:34:19;;;;;;;4.62;3.70;;;;;;;26.87;65.82;99933.26;1636206;87;21430;-55
2022/07/26 12:37:29;;;;;;;4.95;4.00;;;;;;;26.64;65.61;99936.23;1650305;85;21783;-55
2022/07/26 12:40:37;;;;;;;6.50;4.12;;;;;;;26.42;65.55;99948.42;1651170;84;21744;-54
2022/07/26 12:43:59;;;;;;;5.55;4.00;;;;;;;26.25;65.59;99942.35;1637010;87;21241;-55
2022/07/26 12:47:18;;;;;;;5.10;4.25;;;;;;;26.11;65.57;99935.14;1597920;88;21328;-55
2022/07/26 12:50:27;;;;;;;6.22;3.95;;;;;;;26.00;65.56;99938.27;1641943;86;21232;-55
2022/07/26 12:53:32;;;;;;;4.42;4.03;;;;;;;25.96;65.55;99937.12;1625711;86;21233;-54
2022/07/26 12:56:39;;;;;;;5.05;4.22;;;;;;;26.00;65.53;99941.08;1663505;85;21802;-56
2022/07/26 12:59:47;;;;;;;4.50;3.60;;;;;;;26.17;65.63;99937.34;1664285;85;21273;-54
2022/07/26 13:02:56;;;;;;;4.40;3.80;;;;;;;26.52;65.62;99939.95;1677216;85;21284;-54
2022/07/26 13:06:06;;;;;;;4.70;3.98;;;;;;;26.93;65.59;99934.33;1678072;85;21205;-56
2022/07/26 13:09:14;;;;;;;5.03;4.08;;;;;;;27.26;65.26;99953.70;1675346;85;21229;-57
2022/07/26 13:12:24;;;;;;;4.87;3.95;;;;;;;27.36;64.80;99945.21;1678144;85;21264;-55
2022/07/26 13:15:32;;;;;;;5.55;3.90;;;;;;;27.30;64.41;99947.25;1670237;84;21221;-56
2022/07/26 13:18:42;;;;;;;4.97;4.00;;;;;;;27.10;64.05;99935.33;1669469;85;21746;-57
2022/07/26 13:21:50;;;;;;;5.20;3.22;;;;;;;26.87;63.85;99941.13;1663899;85;21331;-55
2022/07/26 13:24:56;;;;;;;4.97;3.72;;;;;;;26.69;63.81;99937.61;1663857;85;21718;-55
2022/07/26 13:28:10;;;;;;;5.22;4.05;;;;;;;26.60;63.86;99932.87;1702786;84;21261;-54
2022/07/26 13:31:36;;;;;;;5.25;3.85;;;;;;;26.64;63.85;99941.84;1724134;81;21294;-54
2022/07/26 13:34:59;;;;;;;6.10;3.70;;;;;;;26.71;63.64;99927.48;1762822;81;21452;-55
2022/07/26 13:38:20;;;;;;;5.00;3.75;;;;;;;26.79;63.54;99933.88;1667843;85;21331;-55
2022/07/26 13:41:33;;;;;;;4.58;3.37;;;;;;;26.88;63.38;99937.18;1681639;84;21232;-54
2022/07/26 13:44:39;;;;;;;4.85;3.87;;;;;;;26.85;63.26;99934.95;1693481;82;21212;-54
2022/07/26 13:47:47;;;;;;;6.53;3.85;;;;;;;26.77;63.02;99959.45;1680263;85;21307;-55
2022/07/26 13:50:56;;;;;;;5.80;3.35;;;;;;;26.43;62.75;99952.93;1694233;82;21200;-54
2022/07/26 13:54:03;;;;;;;4.55;4.15;;;;;;;26.07;62.64;99959.83;1680240;85;21224;-55
2022/07/26 13:57:12;;;;;;;7.55;4.10;;;;;;;25.71;62.63;99957.70;1723086;82;21213;-56
2022/07/26 14:00:22;;;;;;;7.08;4.20;;;;;;;25.44;62.75;99955.80;1722820;82;21251;-55
2022/07/26 14:03:29;;;;;;;5.62;3.87;;;;;;;25.30;62.91;99955.22;1711964;82;21249;-54
2022/07/26 14:06:38;;;;;;;5.17;4.25;;;;;;;25.21;62.95;99954.97;1665508;84;21840;-55
2022/07/26 14:09:47;;;;;;;6.17;4.33;;;;;;;25.17;62.99;99954.39;1677322;84;21334;-55
2022/07/26 14:12:53;;;;;;;5.12;4.53;;;;;;;25.16;63.07;99952.17;1698171;83;21236;-56
2022/07/26 14:16:02;;;;;;;6.35;4.55;;;;;;;25.23;63.05;99959.71;1705504;84;21209;-56
2022/07/26 14:19:12;;;;;;;5.05;4.10;;;;;;;25.27;63.02;99963.65;1711941;83;21224;-56
2022/07/26 14:22:21;;;;;;;6.60;3.80;;;;;;;25.26;62.93;99969.53;1709803;82;21284;-57
2022/07/26 14:25:32;;;;;;;8.78;4.20;;;;;;;25.27;62.95;99976.81;1714803;82;21252;-55
2022/07/26 14:28:41;;;;;;;6.72;4.25;;;;;;;25.28;62.94;99985.48;1694254;84;21235;-55
2022/07/26 14:31:51;;;;;;;6.67;4.28;;;;;;;25.18;62.88;99981.31;1684862;85;21229;-55
2022/07/26 14:35:01;;;;;;;5.87;4.05;;;;;;;25.00;62.79;99997.56;1685493;85;21179;-56
2022/07/26 14:38:07;;;;;;;4.83;4.10;;;;;;;24.86;62.91;99992.20;1685770;85;21596;-55
2022/07/26 14:41:17;;;;;;;5.33;4.00;;;;;;;24.82;62.98;99989.69;1685868;85;21214;-55
2022/07/26 14:44:25;;;;;;;5.03;3.72;;;;;;;24.80;63.01;99990.52;1685689;85;21621;-55
2022/07/26 14:47:34;;;;;;;5.28;3.95;;;;;;;24.81;63.02;99992.22;1696237;83;21270;-55